createdAt,value
2022-10-04T00:01:12.771Z,10.70
2022-10-04T00:03:48.474Z,10.80
2022-10-04T00:06:24.310Z,10.80
2022-10-04T00:09:30.986Z,10.80
2022-10-04T00:12:00.013Z,10.80
2022-10-04T00:14:37.356Z,10.84
2022-10-04T00:17:18.982Z,10.90
2022-10-04T00:19:49.891Z,10.90
2022-10-04T00:22:29.972Z,10.90
2022-10-04T00:25:02.098Z,10.90
2022-10-04T00:27:29.992Z,10.94
2022-10-04T00:30:23.300Z,11.00
2022-10-04T00:33:09.209Z,11.00
2022-10-04T00:35:36.982Z,11.00
2022-10-04T00:38:07.633Z,11.00
2022-10-04T00:40:46.557Z,11.04
2022-10-04T00:43:24.343Z,11.04
2022-10-04T00:46:07.510Z,11.10
2022-10-04T00:48:56.801Z,11.00
2022-10-04T00:51:56.213Z,11.00
2022-10-04T00:54:41.541Z,11.00
2022-10-04T00:57:26.306Z,11.00
2022-10-04T01:00:16.588Z,11.00
2022-10-04T01:03:00.133Z,11.00
2022-10-04T01:05:41.639Z,10.92
2022-10-04T01:08:22.893Z,10.90
2022-10-04T01:11:03.018Z,10.90
2022-10-04T01:13:39.681Z,10.90
2022-10-04T01:16:26.254Z,10.90
2022-10-04T01:18:54.176Z,10.90
2022-10-04T01:21:31.439Z,10.90
2022-10-04T01:23:59.103Z,10.80
2022-10-04T01:26:26.783Z,10.80
2022-10-04T01:28:59.032Z,10.80
2022-10-04T01:31:33.134Z,10.80
2022-10-04T01:34:03.209Z,10.70
2022-10-04T01:36:31.807Z,10.70
2022-10-04T01:38:59.772Z,10.70
2022-10-04T01:41:42.221Z,10.70
2022-10-04T01:44:24.560Z,10.70
2022-10-04T01:46:56.288Z,10.70
2022-10-04T01:49:30.890Z,10.70
2022-10-04T01:52:10.493Z,10.60
2022-10-04T01:54:45.041Z,10.60
2022-10-04T01:57:52.738Z,10.60
2022-10-04T02:00:22.484Z,10.60
2022-10-04T02:03:12.045Z,10.60
2022-10-04T02:05:44.518Z,10.60
2022-10-04T02:08:16.464Z,10.60
2022-10-04T02:10:49.380Z,10.50
2022-10-04T02:13:18.922Z,10.50
2022-10-04T02:15:48.354Z,10.50
2022-10-04T02:18:20.793Z,10.50
2022-10-04T02:20:50.504Z,10.50
2022-10-04T02:23:23.684Z,10.44
2022-10-04T02:25:52.087Z,10.40
2022-10-04T02:28:20.027Z,10.46
2022-10-04T02:31:10.790Z,10.40
2022-10-04T02:33:45.832Z,10.40
2022-10-04T02:36:14.645Z,10.40
2022-10-04T02:38:55.582Z,10.40
2022-10-04T02:41:31.853Z,10.40
2022-10-04T02:44:25.012Z,10.40
2022-10-04T02:47:12.680Z,10.40
2022-10-04T02:50:15.864Z,10.40
2022-10-04T02:52:49.136Z,10.32
2022-10-04T02:55:27.869Z,10.34
2022-10-04T02:57:58.501Z,10.30
2022-10-04T03:00:30.432Z,10.38
2022-10-04T03:03:25.207Z,10.32
2022-10-04T03:06:15.559Z,10.38
2022-10-04T03:08:43.254Z,10.34
2022-10-04T03:11:14.033Z,10.30
2022-10-04T03:13:47.516Z,10.30
2022-10-04T03:16:16.171Z,10.30
2022-10-04T03:18:44.486Z,10.30
2022-10-04T03:21:15.954Z,10.30
2022-10-04T03:23:45.549Z,10.30
2022-10-04T03:26:38.649Z,10.30
2022-10-04T03:29:10.357Z,10.30
2022-10-04T03:31:51.761Z,10.40
2022-10-04T03:34:24.400Z,10.40
2022-10-04T03:36:56.292Z,10.40
2022-10-04T03:39:37.161Z,10.40
2022-10-04T03:42:19.229Z,10.40
2022-10-04T03:44:50.290Z,10.50
2022-10-04T03:47:25.627Z,10.50
2022-10-04T03:49:55.715Z,10.50
2022-10-04T03:52:31.161Z,10.50
2022-10-04T03:55:05.585Z,10.54
2022-10-04T03:57:36.543Z,10.60
2022-10-04T04:00:07.111Z,10.60
2022-10-04T04:02:57.195Z,10.60
2022-10-04T04:05:29.679Z,10.60
2022-10-04T04:08:25.190Z,10.60
2022-10-04T04:10:56.185Z,10.60
2022-10-04T04:13:31.574Z,10.66
2022-10-04T04:16:02.683Z,10.66
2022-10-04T04:18:40.576Z,10.64
2022-10-04T04:21:08.690Z,10.60
2022-10-04T04:23:45.007Z,10.60
2022-10-04T04:26:31.469Z,10.60
2022-10-04T04:29:34.002Z,10.60
2022-10-04T04:32:20.799Z,10.60
2022-10-04T04:34:58.067Z,10.70
2022-10-04T04:37:26.006Z,10.68
2022-10-04T04:39:57.821Z,10.70
2022-10-04T04:42:34.893Z,10.70
2022-10-04T04:45:19.253Z,10.70
2022-10-04T04:47:58.564Z,10.70
2022-10-04T04:50:33.404Z,10.70
2022-10-04T04:53:22.689Z,10.70
2022-10-04T04:56:23.473Z,10.70
2022-10-04T04:58:54.258Z,10.70
2022-10-04T05:01:31.524Z,10.70
2022-10-04T05:04:14.410Z,10.70
2022-10-04T05:06:49.101Z,10.70
2022-10-04T05:09:28.147Z,10.70
2022-10-04T05:12:03.736Z,10.70
2022-10-04T05:14:31.737Z,10.70
2022-10-04T05:16:59.598Z,10.70
2022-10-04T05:19:36.153Z,10.74
2022-10-04T05:22:17.903Z,10.70
2022-10-04T05:24:49.909Z,10.80
2022-10-04T05:27:29.246Z,10.80
2022-10-04T05:30:24.326Z,10.80
2022-10-04T05:33:12.038Z,10.80
2022-10-04T05:36:02.626Z,10.88
2022-10-04T05:39:20.711Z,10.90
2022-10-04T05:41:56.731Z,10.90
2022-10-04T05:44:46.991Z,10.90
2022-10-04T05:47:16.478Z,11.00
2022-10-04T05:49:46.837Z,11.00
2022-10-04T05:52:37.073Z,11.00
2022-10-04T05:55:34.015Z,11.04
2022-10-04T05:58:25.383Z,11.10
2022-10-04T06:01:42.524Z,11.12
2022-10-04T06:04:25.510Z,11.20
2022-10-04T06:07:09.704Z,11.20
2022-10-04T06:10:17.720Z,11.30
2022-10-04T06:12:55.571Z,11.30
2022-10-04T06:15:38.627Z,11.30
2022-10-04T06:18:21.784Z,11.30
2022-10-04T06:21:27.426Z,11.40
2022-10-04T06:24:37.397Z,11.40
2022-10-04T06:27:27.840Z,11.50
2022-10-04T06:30:05.880Z,11.58
2022-10-04T06:33:27.287Z,11.60
2022-10-04T06:36:35.097Z,11.62
2022-10-04T06:39:38.607Z,11.70
2022-10-04T06:42:42.250Z,11.70
2022-10-04T06:45:37.840Z,11.70
2022-10-04T06:48:27.275Z,11.70
2022-10-04T06:51:08.514Z,11.80
2022-10-04T06:54:00.250Z,11.80
2022-10-04T06:56:50.190Z,11.80
2022-10-04T06:59:45.292Z,11.80
2022-10-04T07:02:51.298Z,11.90
2022-10-04T07:05:43.342Z,11.90
2022-10-04T07:08:14.092Z,11.90
2022-10-04T07:10:55.467Z,11.98
2022-10-04T07:13:41.167Z,12.00
2022-10-04T07:16:45.775Z,12.04
2022-10-04T07:19:19.445Z,12.10
2022-10-04T07:22:08.329Z,12.10
2022-10-04T07:25:03.177Z,12.18
2022-10-04T07:28:20.307Z,12.20
2022-10-04T07:31:10.344Z,12.22
2022-10-04T07:33:51.731Z,12.30
2022-10-04T07:36:24.894Z,12.36
2022-10-04T07:39:13.785Z,12.40
2022-10-04T07:42:13.697Z,12.38
2022-10-04T07:44:45.434Z,12.40
2022-10-04T07:47:22.540Z,12.40
2022-10-04T07:49:50.607Z,12.36
2022-10-04T07:52:44.361Z,12.40
2022-10-04T07:55:45.477Z,12.48
2022-10-04T07:58:46.300Z,12.50
2022-10-04T08:01:32.638Z,12.50
2022-10-04T08:04:22.193Z,12.56
2022-10-04T08:07:10.783Z,12.60
2022-10-04T08:10:02.885Z,12.60
2022-10-04T08:13:24.196Z,12.60
2022-10-04T08:15:53.063Z,12.60
2022-10-04T08:18:56.614Z,12.60
2022-10-04T08:21:41.393Z,12.60
2022-10-04T08:24:39.434Z,12.60
2022-10-04T08:27:39.367Z,12.60
2022-10-04T08:30:17.343Z,12.70
2022-10-04T08:33:08.074Z,12.80
2022-10-04T08:36:06.925Z,12.80
2022-10-04T08:38:53.072Z,13.00
2022-10-04T08:41:57.493Z,13.10
2022-10-04T08:45:03.300Z,13.20
2022-10-04T08:48:28.414Z,13.20
2022-10-04T08:51:23.534Z,13.34
2022-10-04T08:54:22.636Z,13.40
2022-10-04T08:57:16.140Z,13.50
2022-10-04T09:00:05.839Z,13.60
2022-10-04T09:03:30.441Z,13.60
2022-10-04T09:06:54.429Z,13.70
2022-10-04T09:09:52.457Z,13.80
2022-10-04T09:12:26.262Z,13.90
2022-10-04T09:15:21.340Z,13.90
2022-10-04T09:18:48.958Z,13.90
2022-10-04T09:21:41.322Z,14.00
2022-10-04T09:24:43.270Z,14.00
2022-10-04T09:28:02.172Z,14.10
2022-10-04T09:31:30.186Z,14.20
2022-10-04T09:34:22.193Z,14.20
2022-10-04T09:37:14.384Z,14.30
2022-10-04T09:40:11.073Z,14.40
2022-10-04T09:42:57.939Z,14.40
2022-10-04T09:45:45.298Z,14.36
2022-10-04T09:48:46.916Z,14.44
2022-10-04T09:51:30.782Z,14.50
2022-10-04T09:54:47.155Z,14.50
2022-10-04T09:58:14.986Z,14.56
2022-10-04T10:00:46.651Z,14.60
2022-10-04T10:03:38.632Z,14.50
2022-10-04T10:06:19.092Z,14.50
2022-10-04T10:09:48.005Z,14.40
2022-10-04T10:12:56.719Z,14.40
2022-10-04T10:15:59.152Z,14.40
2022-10-04T10:18:51.922Z,14.38
2022-10-04T10:22:00.394Z,14.40
2022-10-04T10:25:27.547Z,14.30
2022-10-04T10:28:36.999Z,14.30
2022-10-04T10:31:48.206Z,14.48
2022-10-04T10:34:16.215Z,14.56
2022-10-04T10:37:18.897Z,14.60
2022-10-04T10:39:50.269Z,14.72
2022-10-04T10:42:55.516Z,14.80
2022-10-04T10:45:43.890Z,14.80
2022-10-04T10:48:19.510Z,14.90
2022-10-04T10:51:10.403Z,14.90
2022-10-04T10:53:52.586Z,14.90
2022-10-04T10:56:38.436Z,15.00
2022-10-04T10:59:15.505Z,15.00
2022-10-04T11:02:37.185Z,15.00
2022-10-04T11:05:58.143Z,15.00
2022-10-04T11:09:08.121Z,14.90
2022-10-04T11:12:16.523Z,15.00
2022-10-04T11:14:53.361Z,15.00
2022-10-04T11:17:48.206Z,15.00
2022-10-04T11:20:49.976Z,15.10
2022-10-04T11:23:26.779Z,15.22
2022-10-04T11:25:57.691Z,15.20
2022-10-04T11:28:37.975Z,15.24
2022-10-04T11:31:27.431Z,15.30
2022-10-04T11:34:01.164Z,15.12
2022-10-04T11:36:44.173Z,15.10
2022-10-04T11:39:30.455Z,15.06
2022-10-04T11:42:45.525Z,15.00
2022-10-04T11:45:33.443Z,15.00
2022-10-04T11:48:27.781Z,15.10
2022-10-04T11:51:26.130Z,15.00
2022-10-04T11:54:31.670Z,15.10
2022-10-04T11:57:34.505Z,15.14
2022-10-04T12:00:16.807Z,15.10
2022-10-04T12:03:32.053Z,15.10
2022-10-04T12:06:34.969Z,15.10
2022-10-04T12:09:17.420Z,15.12
2022-10-04T12:12:37.091Z,15.20
2022-10-04T12:16:13.852Z,15.22
2022-10-04T12:19:17.905Z,15.40
2022-10-04T12:22:01.810Z,15.68
2022-10-04T12:24:59.862Z,15.70
2022-10-04T12:27:59.624Z,15.80
2022-10-04T12:30:52.028Z,15.88
2022-10-04T12:33:37.344Z,15.76
2022-10-04T12:36:13.662Z,15.60
2022-10-04T12:39:02.931Z,15.70
2022-10-04T12:41:45.959Z,15.70
2022-10-04T12:44:25.939Z,15.70
2022-10-04T12:47:50.515Z,15.70
2022-10-04T12:51:04.124Z,15.70
2022-10-04T12:54:01.442Z,15.72
2022-10-04T12:57:14.543Z,15.66
2022-10-04T13:00:16.825Z,15.70
2022-10-04T13:03:06.763Z,15.52
2022-10-04T13:06:16.543Z,15.50
2022-10-04T13:09:07.571Z,15.60
2022-10-04T13:11:57.227Z,15.70
2022-10-04T13:15:06.312Z,15.70
2022-10-04T13:18:18.649Z,15.70
2022-10-04T13:21:14.653Z,15.70
2022-10-04T13:24:06.975Z,15.80
2022-10-04T13:27:00.898Z,15.80
2022-10-04T13:30:02.339Z,15.80
2022-10-04T13:33:04.566Z,15.94
2022-10-04T13:35:46.061Z,16.20
2022-10-04T13:38:31.669Z,16.42
2022-10-04T13:41:41.329Z,16.84
2022-10-04T13:44:33.446Z,17.10
2022-10-04T13:47:04.747Z,17.24
2022-10-04T13:50:19.685Z,17.20
2022-10-04T13:53:54.361Z,17.30
2022-10-04T13:57:05.142Z,17.30
2022-10-04T13:59:44.927Z,17.30
2022-10-04T14:02:49.683Z,17.46
2022-10-04T14:05:38.712Z,17.40
2022-10-04T14:08:49.839Z,17.40
2022-10-04T14:11:43.250Z,17.16
2022-10-04T14:15:12.292Z,17.00
2022-10-04T14:18:21.287Z,16.90
2022-10-04T14:21:44.052Z,16.70
2022-10-04T14:24:28.102Z,16.52
2022-10-04T14:27:10.048Z,16.30
2022-10-04T14:30:06.281Z,16.20
2022-10-04T14:33:04.035Z,16.00
2022-10-04T14:35:47.264Z,15.90
2022-10-04T14:38:14.920Z,15.80
2022-10-04T14:40:56.205Z,15.70
2022-10-04T14:43:50.819Z,15.70
2022-10-04T14:46:25.642Z,15.60
2022-10-04T14:48:59.536Z,15.60
2022-10-04T14:52:06.534Z,15.50
2022-10-04T14:54:56.422Z,15.50
2022-10-04T14:57:51.261Z,15.50
2022-10-04T15:01:01.329Z,15.50
2022-10-04T15:03:55.307Z,15.50
2022-10-04T15:06:36.508Z,15.50
2022-10-04T15:10:05.692Z,15.44
2022-10-04T15:13:13.748Z,15.40
2022-10-04T15:15:44.737Z,15.30
2022-10-04T15:18:38.152Z,15.20
2022-10-04T15:21:33.034Z,15.12
2022-10-04T15:24:25.606Z,15.02
2022-10-04T15:27:17.492Z,15.00
2022-10-04T15:29:58.035Z,14.94
2022-10-04T15:32:45.069Z,14.80
2022-10-04T15:35:49.370Z,14.80
2022-10-04T15:38:50.766Z,14.74
2022-10-04T15:41:19.803Z,14.70
2022-10-04T15:44:13.328Z,14.62
2022-10-04T15:46:56.891Z,14.60
2022-10-04T15:50:17.362Z,14.60
2022-10-04T15:53:08.057Z,14.50
2022-10-04T15:55:35.946Z,14.50
2022-10-04T15:59:01.072Z,14.40
2022-10-04T16:02:02.656Z,14.30
2022-10-04T16:04:51.735Z,14.22
2022-10-04T16:07:50.288Z,14.20
2022-10-04T16:10:28.347Z,14.10
2022-10-04T16:13:17.365Z,14.10
2022-10-04T16:15:49.565Z,14.02
2022-10-04T16:18:36.850Z,14.00
2022-10-04T16:21:06.795Z,14.00
2022-10-04T16:23:43.917Z,14.00
2022-10-04T16:26:34.900Z,13.92
2022-10-04T16:29:11.810Z,13.90
2022-10-04T16:31:54.781Z,13.90
2022-10-04T16:34:50.167Z,13.84
2022-10-04T16:37:38.758Z,13.80
2022-10-04T16:40:12.022Z,13.80
2022-10-04T16:42:45.528Z,13.72
2022-10-04T16:45:45.708Z,13.70
2022-10-04T16:48:37.685Z,13.70
2022-10-04T16:51:33.987Z,13.60
2022-10-04T16:54:31.313Z,13.60
2022-10-04T16:57:00.745Z,13.50
2022-10-04T16:59:38.135Z,13.50
2022-10-04T17:02:37.863Z,13.50
2022-10-04T17:05:37.101Z,13.40
2022-10-04T17:08:16.677Z,13.40
2022-10-04T17:11:08.699Z,13.30
2022-10-04T17:13:45.847Z,13.30
2022-10-04T17:16:21.911Z,13.20
2022-10-04T17:18:55.705Z,13.20
2022-10-04T17:22:06.853Z,13.10
2022-10-04T17:24:51.487Z,13.00
2022-10-04T17:27:35.133Z,13.00
2022-10-04T17:30:21.908Z,12.90
2022-10-04T17:33:24.098Z,12.90
2022-10-04T17:36:07.090Z,12.80
2022-10-04T17:39:03.011Z,12.80
2022-10-04T17:41:55.742Z,12.78
2022-10-04T17:44:45.746Z,12.70
2022-10-04T17:47:56.387Z,12.70
2022-10-04T17:51:02.710Z,12.70
2022-10-04T17:53:54.393Z,12.66
2022-10-04T17:56:45.615Z,12.60
2022-10-04T17:59:21.693Z,12.60
2022-10-04T18:02:03.083Z,12.60
2022-10-04T18:04:36.448Z,12.54
2022-10-04T18:07:04.148Z,12.50
2022-10-04T18:10:27.929Z,12.50
2022-10-04T18:13:11.239Z,12.46
2022-10-04T18:15:54.721Z,12.40
2022-10-04T18:18:41.765Z,12.40
2022-10-04T18:21:15.280Z,12.38
2022-10-04T18:23:57.934Z,12.30
2022-10-04T18:26:33.205Z,12.26
2022-10-04T18:29:01.823Z,12.20
2022-10-04T18:31:31.217Z,12.20
2022-10-04T18:34:28.445Z,12.20
2022-10-04T18:37:08.106Z,12.10
2022-10-04T18:39:48.764Z,12.10
2022-10-04T18:42:37.109Z,12.08
2022-10-04T18:45:25.609Z,12.00
2022-10-04T18:47:53.661Z,11.98
2022-10-04T18:50:21.369Z,11.90
2022-10-04T18:53:29.619Z,11.90
2022-10-04T18:55:59.955Z,11.84
2022-10-04T18:59:19.611Z,11.80
2022-10-04T19:02:16.202Z,11.80
2022-10-04T19:05:06.798Z,11.70
2022-10-04T19:07:58.880Z,11.70
2022-10-04T19:10:54.961Z,11.70
2022-10-04T19:14:02.670Z,11.64
2022-10-04T19:17:01.512Z,11.60
2022-10-04T19:19:57.690Z,11.60
2022-10-04T19:22:59.350Z,11.60
2022-10-04T19:26:09.866Z,11.50
2022-10-04T19:28:37.769Z,11.50
2022-10-04T19:31:11.713Z,11.50
2022-10-04T19:34:18.822Z,11.50
2022-10-04T19:37:02.448Z,11.40
2022-10-04T19:39:48.579Z,11.40
2022-10-04T19:42:26.719Z,11.40
2022-10-04T19:45:33.406Z,11.40
2022-10-04T19:48:09.398Z,11.40
2022-10-04T19:50:46.110Z,11.30
2022-10-04T19:53:30.992Z,11.30
2022-10-04T19:56:01.194Z,11.30
2022-10-04T19:58:47.694Z,11.30
2022-10-04T20:01:23.166Z,11.30
2022-10-04T20:04:11.557Z,11.24
2022-10-04T20:06:49.399Z,11.20
2022-10-04T20:09:41.141Z,11.20
2022-10-04T20:12:43.229Z,11.20
2022-10-04T20:15:25.207Z,11.20
2022-10-04T20:17:56.345Z,11.20
2022-10-04T20:20:39.146Z,11.16
2022-10-04T20:23:08.615Z,11.10
2022-10-04T20:25:45.866Z,11.10
2022-10-04T20:28:28.956Z,11.10
2022-10-04T20:30:59.753Z,11.10
2022-10-04T20:33:39.223Z,11.10
2022-10-04T20:36:14.172Z,11.10
2022-10-04T20:38:50.259Z,11.00
2022-10-04T20:42:03.070Z,11.00
2022-10-04T20:44:55.881Z,10.98
2022-10-04T20:47:33.236Z,10.96
2022-10-04T20:50:02.563Z,10.90
2022-10-04T20:52:36.658Z,10.90
2022-10-04T20:55:28.157Z,10.90
2022-10-04T20:58:03.407Z,10.90
2022-10-04T21:00:34.734Z,10.90
2022-10-04T21:03:18.204Z,10.88
2022-10-04T21:06:00.371Z,10.86
2022-10-04T21:08:29.629Z,10.80
2022-10-04T21:11:09.648Z,10.80
2022-10-04T21:13:53.698Z,10.80
2022-10-04T21:16:42.385Z,10.80
2022-10-04T21:19:38.934Z,10.78
2022-10-04T21:22:08.314Z,10.70
2022-10-04T21:24:54.846Z,10.70
2022-10-04T21:27:34.363Z,10.70
2022-10-04T21:30:13.802Z,10.62
2022-10-04T21:32:41.687Z,10.60
2022-10-04T21:35:10.315Z,10.60
2022-10-04T21:37:38.223Z,10.60
2022-10-04T21:40:07.460Z,10.50
2022-10-04T21:42:35.313Z,10.50
2022-10-04T21:45:03.527Z,10.50
2022-10-04T21:47:31.288Z,10.50
2022-10-04T21:49:59.053Z,10.50
2022-10-04T21:52:26.782Z,10.40
2022-10-04T21:54:54.595Z,10.50
2022-10-04T21:57:24.072Z,10.42
2022-10-04T21:59:52.601Z,10.40
2022-10-04T22:02:20.439Z,10.40
2022-10-04T22:04:48.497Z,10.40
2022-10-04T22:07:16.376Z,10.30
2022-10-04T22:09:44.142Z,10.30
2022-10-04T22:12:11.932Z,10.30
2022-10-04T22:14:39.902Z,10.30
2022-10-04T22:17:07.911Z,10.30
2022-10-04T22:19:35.953Z,10.30
2022-10-04T22:22:03.758Z,10.20
2022-10-04T22:24:39.023Z,10.20
2022-10-04T22:27:19.887Z,10.20
2022-10-04T22:29:48.106Z,10.20
2022-10-04T22:32:25.623Z,10.14
2022-10-04T22:35:01.819Z,10.20
2022-10-04T22:37:31.133Z,10.12
2022-10-04T22:39:58.939Z,10.10
2022-10-04T22:42:31.533Z,10.10
2022-10-04T22:45:02.143Z,10.10
2022-10-04T22:47:31.714Z,10.10
2022-10-04T22:49:59.552Z,10.10
2022-10-04T22:52:29.764Z,10.10
2022-10-04T22:55:02.048Z,10.10
2022-10-04T22:57:30.605Z,10.10
2022-10-04T22:59:58.385Z,10.10
2022-10-04T23:02:30.498Z,10.10
2022-10-04T23:05:09.504Z,10.10
2022-10-04T23:07:38.517Z,10.10
2022-10-04T23:10:07.861Z,10.10
2022-10-04T23:12:36.215Z,10.10
2022-10-04T23:15:06.455Z,10.10
2022-10-04T23:17:39.903Z,10.10
2022-10-04T23:20:17.238Z,10.10
2022-10-04T23:22:49.180Z,10.10
2022-10-04T23:25:29.469Z,10.10
2022-10-04T23:28:02.962Z,10.10
2022-10-04T23:30:31.011Z,10.10
2022-10-04T23:33:00.804Z,10.10
2022-10-04T23:35:33.079Z,10.10
2022-10-04T23:38:07.069Z,10.20
2022-10-04T23:40:34.911Z,10.20
2022-10-04T23:43:05.304Z,10.12
2022-10-04T23:45:35.330Z,10.10
2022-10-04T23:48:03.247Z,10.10
2022-10-04T23:50:37.642Z,10.14
2022-10-04T23:53:19.561Z,10.12
2022-10-04T23:55:47.372Z,10.14
2022-10-04T23:58:32.301Z,10.20
